Time;durP1;ratioP1;P1;durP2;ratioP2;P2;SDS_P1;SDS_P2;PMS_P1;PMS_P2;Temp;Humidity;BMP_temperature;BMP_pressure;BME280_temperature;BME280_humidity;BME280_pressure;Samples;Min_cycle;Max_cycle;Signal;HPM_P1;HPM_P2
2022/01/30 00:00:18;;;;;;;22.63;7.57;;;;;;;8.07;66.41;100642.09;5053254;28;20029;-71
2022/01/30 00:02:44;;;;;;;32.13;7.45;;;;;;;7.88;67.09;100632.06;5052228;28;20570;-72
2022/01/30 00:05:09;;;;;;;22.08;6.80;;;;;;;7.76;67.86;100629.72;5051166;28;20498;-72
2022/01/30 00:07:35;;;;;;;19.08;6.15;;;;;;;7.66;68.70;100639.56;5054409;28;20083;-71
2022/01/30 00:10:00;;;;;;;21.30;7.68;;;;;;;7.58;69.03;100643.25;5053053;28;20071;-72
2022/01/30 00:12:38;;;;;;;23.75;7.07;;;;;;;7.50;69.08;100646.06;5053952;28;20037;-72
2022/01/30 00:15:04;;;;;;;34.90;7.57;;;;;;;7.43;69.62;100644.47;5072619;28;20393;-71
2022/01/30 00:17:37;;;;;;;24.10;7.20;;;;;;;7.36;70.00;100648.13;5046353;28;20033;-71
2022/01/30 00:20:06;;;;;;;26.52;8.00;;;;;;;7.29;69.69;100657.91;5067643;28;20033;-71
2022/01/30 00:25:06;;;;;;;23.58;6.38;;;;;;;7.16;70.19;100659.06;5067773;28;20443;-71
2022/01/30 00:27:44;;;;;;;27.55;9.57;;;;;;;7.10;70.64;100660.06;5067889;28;20033;-71
2022/01/30 00:30:12;;;;;;;23.00;7.93;;;;;;;7.07;70.63;100658.38;5063390;28;20081;-72
2022/01/30 00:32:37;;;;;;;28.63;8.15;;;;;;;7.04;71.02;100662.81;5068895;28;20032;-72
2022/01/30 00:35:03;;;;;;;25.52;8.38;;;;;;;6.95;71.91;100674.34;5067794;28;20040;-71
2022/01/30 00:37:28;;;;;;;26.65;8.75;;;;;;;6.89;71.59;100674.44;5066714;28;20082;-71
2022/01/30 00:39:54;;;;;;;23.27;6.85;;;;;;;6.84;71.96;100684.16;5065851;28;20040;-72
2022/01/30 00:42:21;;;;;;;36.88;7.80;;;;;;;6.80;72.23;100686.00;5067884;28;20067;-72
2022/01/30 00:44:46;;;;;;;23.63;6.68;;;;;;;6.73;72.10;100688.78;5067335;28;20041;-71
2022/01/30 00:47:13;;;;;;;26.00;7.32;;;;;;;6.62;72.36;100681.09;5068360;28;20035;-71
2022/01/30 00:49:40;;;;;;;25.05;8.52;;;;;;;6.56;72.77;100686.44;5058515;28;20033;-70
2022/01/30 00:52:06;;;;;;;24.17;8.57;;;;;;;6.53;72.61;100679.50;5061989;28;20043;-70
2022/01/30 00:54:32;;;;;;;31.63;7.57;;;;;;;6.49;72.70;100685.69;5058591;28;20098;-71
2022/01/30 00:56:57;;;;;;;31.48;9.15;;;;;;;6.43;72.83;100681.44;5047612;28;20501;-71
2022/01/30 00:59:22;;;;;;;22.60;7.55;;;;;;;6.35;72.98;100688.56;5046889;28;20523;-72
2022/01/30 01:01:48;;;;;;;24.02;7.57;;;;;;;6.31;73.20;100679.03;5047910;28;20036;-72
2022/01/30 01:04:13;;;;;;;37.40;8.15;;;;;;;6.24;73.42;100678.25;5049631;28;20108;-71
2022/01/30 01:06:40;;;;;;;25.13;6.63;;;;;;;6.19;73.72;100677.47;5050515;28;20067;-75
2022/01/30 01:09:06;;;;;;;23.70;7.88;;;;;;;6.17;73.82;100694.09;5049613;28;20437;-72
2022/01/30 01:20:54;;;;;;;30.70;7.30;;;;;;;6.11;74.04;100704.69;5047727;28;20048;-70
2022/01/30 01:25:09;;;;;;;30.40;7.03;;;;;;;5.96;74.43;100703.19;5065824;28;20043;-71
2022/01/30 01:27:34;;;;;;;33.17;9.00;;;;;;;5.96;74.35;100705.81;5057908;28;20050;-72
2022/01/30 01:29:59;;;;;;;32.08;6.75;;;;;;;5.94;74.60;100700.59;5052579;28;20043;-72
2022/01/30 01:32:25;;;;;;;29.48;8.23;;;;;;;5.92;74.31;100698.84;5029529;28;20048;-72
2022/01/30 01:34:50;;;;;;;24.35;7.60;;;;;;;5.86;74.19;100699.81;5013773;28;20034;-72
2022/01/30 01:37:15;;;;;;;25.77;8.02;;;;;;;5.84;74.59;100711.19;5069435;28;20111;-73
2022/01/30 01:39:41;;;;;;;22.73;6.80;;;;;;;5.81;74.94;100709.47;5071862;28;20040;-72
2022/01/30 01:42:06;;;;;;;28.17;7.82;;;;;;;5.79;74.60;100714.72;5067603;28;20082;-72
2022/01/30 01:44:38;;;;;;;22.48;5.75;;;;;;;5.77;74.74;100716.50;5066825;28;20404;-71
2022/01/30 01:47:04;;;;;;;20.63;6.35;;;;;;;5.76;74.63;100719.16;5067345;28;20044;-71
2022/01/30 01:49:32;;;;;;;35.63;7.65;;;;;;;5.73;74.90;100722.66;5066041;28;20097;-71
2022/01/30 01:54:47;;;;;;;31.40;6.63;;;;;;;5.72;75.03;100734.00;5050367;28;20056;-71
2022/01/30 01:57:13;;;;;;;23.30;6.15;;;;;;;5.70;74.77;100720.09;5056395;28;20024;-72
2022/01/30 01:59:38;;;;;;;33.40;8.02;;;;;;;5.66;74.44;100718.41;5067330;28;20039;-73
2022/01/30 02:02:04;;;;;;;25.33;7.30;;;;;;;5.66;74.91;100723.66;5023585;28;20120;-73
2022/01/30 02:04:31;;;;;;;22.40;6.72;;;;;;;5.60;74.73;100724.59;5081820;28;20087;-72
2022/01/30 02:09:45;;;;;;;32.75;7.10;;;;;;;5.50;75.60;100722.97;5031806;28;20998;-72
2022/01/30 02:12:17;;;;;;;29.92;8.13;;;;;;;5.47;75.38;100730.88;5047171;28;20119;-72
2022/01/30 02:25:43;;;;;;;22.63;7.55;;;;;;;5.29;76.01;100716.28;5046298;28;20098;-71
2022/01/30 02:28:15;;;;;;;27.90;7.13;;;;;;;5.26;75.62;100715.44;5047921;28;20033;-71
2022/01/30 02:30:47;;;;;;;28.17;8.70;;;;;;;5.22;75.73;100719.88;5050955;28;20029;-70
2022/01/30 02:33:12;;;;;;;33.85;6.47;;;;;;;5.19;75.97;100717.25;5051019;28;20378;-72
2022/01/30 02:35:38;;;;;;;31.45;7.35;;;;;;;5.18;76.09;100720.78;5049003;28;20040;-70
2022/01/30 02:38:03;;;;;;;23.88;7.68;;;;;;;5.15;76.33;100728.66;5050753;28;20087;-70
2022/01/30 02:40:32;;;;;;;26.33;6.45;;;;;;;5.13;76.38;100712.97;5050363;28;20036;-71
2022/01/30 02:42:58;;;;;;;28.27;8.75;;;;;;;5.11;76.46;100726.97;5051163;28;20116;-70
2022/01/30 02:45:27;;;;;;;24.05;8.23;;;;;;;5.08;76.55;100727.00;5049401;28;20598;-70
2022/01/30 02:50:34;;;;;;;29.63;7.40;;;;;;;5.06;76.03;100723.53;5050241;28;20063;-70
2022/01/30 02:53:03;;;;;;;19.42;6.50;;;;;;;5.03;76.27;100728.81;5050624;28;20121;-70
2022/01/30 02:55:29;;;;;;;25.38;7.63;;;;;;;5.03;76.39;100720.97;5049718;28;20044;-70
2022/01/30 02:57:54;;;;;;;27.23;7.28;;;;;;;5.00;76.13;100724.47;5050813;28;20033;-71
2022/01/30 03:00:20;;;;;;;30.30;7.20;;;;;;;4.99;76.25;100730.56;5065864;28;20165;-71
2022/01/30 03:02:45;;;;;;;19.30;6.75;;;;;;;4.97;76.45;100734.94;5070446;28;20024;-71
2022/01/30 03:05:11;;;;;;;20.05;8.35;;;;;;;4.97;76.59;100734.09;5084212;28;20063;-71
2022/01/30 03:07:36;;;;;;;23.35;7.28;;;;;;;4.93;76.43;100741.09;5070090;28;20032;-71
2022/01/30 03:10:02;;;;;;;20.80;8.27;;;;;;;4.91;76.42;100741.09;5070114;28;20028;-71
2022/01/30 03:12:27;;;;;;;23.42;6.43;;;;;;;4.89;76.81;100750.69;5070861;28;20037;-71
2022/01/30 03:14:52;;;;;;;26.15;8.20;;;;;;;4.89;77.15;100742.00;5068203;28;20028;-71
2022/01/30 03:17:18;;;;;;;27.48;9.52;;;;;;;4.88;76.75;100746.38;5069759;28;20021;-71
2022/01/30 03:19:43;;;;;;;24.30;6.80;;;;;;;4.87;77.10;100747.28;5069920;28;20039;-71
2022/01/30 03:22:08;;;;;;;26.70;7.10;;;;;;;4.86;77.24;100748.13;5069996;28;20032;-71
2022/01/30 03:24:36;;;;;;;24.25;6.50;;;;;;;4.83;77.02;100745.56;5069809;28;20056;-73
2022/01/30 03:27:03;;;;;;;27.70;6.30;;;;;;;4.81;76.51;100749.94;5063508;28;20413;-72
2022/01/30 03:29:29;;;;;;;31.58;6.75;;;;;;;4.81;76.64;100747.31;5070812;28;20044;-72
2022/01/30 03:31:54;;;;;;;26.92;7.55;;;;;;;4.80;76.66;100755.16;5050180;28;20048;-72
2022/01/30 03:34:20;;;;;;;34.85;7.60;;;;;;;4.79;76.37;100754.28;5050220;28;20036;-72
2022/01/30 03:36:45;;;;;;;29.10;8.30;;;;;;;4.76;76.38;100756.94;5049655;28;20029;-72
2022/01/30 03:39:10;;;;;;;33.97;7.65;;;;;;;4.73;76.38;100762.22;5050732;28;20025;-72
2022/01/30 03:41:36;;;;;;;22.50;6.90;;;;;;;4.73;76.74;100770.03;5049663;28;20032;-72
2022/01/30 03:44:01;;;;;;;39.58;9.50;;;;;;;4.70;76.63;100773.56;5049600;28;20037;-72
2022/01/30 03:46:26;;;;;;;19.77;5.68;;;;;;;4.70;76.62;100785.72;5049505;28;20052;-72
2022/01/30 03:48:52;;;;;;;26.83;7.75;;;;;;;4.67;76.43;100767.47;5049623;28;20071;-71
2022/01/30 03:51:17;;;;;;;21.73;7.32;;;;;;;4.64;76.67;100775.34;5047767;28;20036;-71
2022/01/30 03:53:43;;;;;;;22.80;5.80;;;;;;;4.63;77.00;100771.88;5055177;28;20488;-71
2022/01/30 03:56:08;;;;;;;28.02;7.45;;;;;;;4.60;76.84;100778.84;5067549;28;20040;-71
2022/01/30 03:58:35;;;;;;;21.27;5.90;;;;;;;4.60;76.94;100771.03;5067692;28;20095;-71
2022/01/30 04:01:00;;;;;;;31.92;6.75;;;;;;;4.57;76.88;100778.88;5069093;28;20033;-71
2022/01/30 04:03:25;;;;;;;20.88;5.55;;;;;;;4.55;77.21;100772.81;5069650;28;20120;-71
2022/01/30 04:05:51;;;;;;;14.40;6.07;;;;;;;4.55;77.36;100770.19;5068106;28;20409;-71
2022/01/30 04:08:17;;;;;;;25.02;7.35;;;;;;;4.55;77.31;100776.28;5068786;28;20048;-70
2022/01/30 04:10:43;;;;;;;18.67;5.72;;;;;;;4.55;77.42;100775.41;5069464;28;20032;-73
2022/01/30 04:13:09;;;;;;;34.55;7.95;;;;;;;4.56;77.00;100785.88;5067426;28;20041;-71
2022/01/30 04:15:35;;;;;;;21.40;6.97;;;;;;;4.57;77.39;100784.97;5068531;28;20111;-71
2022/01/30 04:18:01;;;;;;;25.98;6.55;;;;;;;4.54;77.77;100794.59;5068666;28;20029;-71
2022/01/30 04:20:27;;;;;;;34.30;6.68;;;;;;;4.52;77.70;100800.66;5069522;28;20485;-71
2022/01/30 04:22:53;;;;;;;26.95;6.78;;;;;;;4.52;77.20;100802.44;5069105;28;20090;-71
2022/01/30 04:25:18;;;;;;;21.73;6.97;;;;;;;4.52;77.87;100802.44;5067991;28;20909;-71
2022/01/30 04:27:43;;;;;;;26.13;7.85;;;;;;;4.49;77.87;100803.31;5068700;28;20471;-71
2022/01/30 04:30:10;;;;;;;21.83;5.97;;;;;;;4.47;78.17;100812.91;5070713;28;20032;-71
2022/01/30 04:32:42;;;;;;;28.60;6.28;;;;;;;4.45;78.23;100812.03;5087099;28;20048;-71
2022/01/30 04:35:17;;;;;;;21.77;6.97;;;;;;;4.43;78.40;100810.31;5068553;28;20461;-71
2022/01/30 04:56:59;;;;;;;21.30;9.70;;;;;;;4.22;79.25;100807.00;5060737;28;20039;-71
2022/01/30 05:02:12;;;;;;;37.92;7.60;;;;;;;4.16;78.85;100812.28;5064576;28;20036;-71
2022/01/30 05:09:35;;;;;;;25.60;6.32;;;;;;;4.13;79.65;100821.84;5061120;28;20048;-72
2022/01/30 05:12:00;;;;;;;23.40;8.25;;;;;;;4.09;79.20;100814.03;5066243;28;20039;-72
2022/01/30 05:14:33;;;;;;;32.70;7.97;;;;;;;4.08;79.29;100812.28;5061953;28;20493;-72
2022/01/30 05:16:58;;;;;;;21.00;6.00;;;;;;;4.07;79.65;100818.41;5067299;28;20225;-73
2022/01/30 05:19:24;;;;;;;23.35;6.38;;;;;;;4.08;79.30;100821.88;5067805;28;20601;-72
2022/01/30 05:21:49;;;;;;;35.22;8.40;;;;;;;4.09;79.35;100821.88;5067944;28;20033;-71
2022/01/30 05:24:15;;;;;;;27.92;6.15;;;;;;;4.13;79.72;100830.53;5066513;28;20516;-72
2022/01/30 05:26:43;;;;;;;29.13;6.68;;;;;;;4.20;79.12;100836.59;5047690;28;20036;-73
2022/01/30 05:29:08;;;;;;;19.33;6.97;;;;;;;4.24;79.06;100840.94;5055822;28;20138;-73
2022/01/30 05:31:34;;;;;;;20.10;7.55;;;;;;;4.30;79.34;100840.88;5065282;28;20509;-72
2022/01/30 05:33:59;;;;;;;25.08;6.07;;;;;;;4.36;78.62;100840.84;5068118;28;20106;-72
2022/01/30 05:36:25;;;;;;;26.70;6.70;;;;;;;4.39;78.46;100842.56;5060402;28;20307;-74
2022/01/30 05:38:51;;;;;;;14.02;6.05;;;;;;;4.41;78.27;100846.91;5066456;28;20409;-74
2022/01/30 05:41:18;;;;;;;23.75;6.13;;;;;;;4.43;77.82;100842.53;5067246;28;20036;-73
2022/01/30 05:43:46;;;;;;;37.60;9.32;;;;;;;4.47;77.90;100846.84;5067663;28;20028;-73
2022/01/30 05:46:16;;;;;;;24.05;6.63;;;;;;;4.50;77.49;100845.94;5066551;28;20431;-73
2022/01/30 05:48:42;;;;;;;26.65;7.45;;;;;;;4.53;77.78;100856.41;5057067;28;20037;-73
2022/01/30 05:51:08;;;;;;;18.52;7.07;;;;;;;4.55;77.33;100857.22;5059808;28;20081;-73
2022/01/30 05:53:33;;;;;;;18.15;6.53;;;;;;;4.54;77.35;100857.25;5066470;28;20079;-73
2022/01/30 05:55:58;;;;;;;19.15;5.45;;;;;;;4.55;77.29;100859.84;5066266;28;20036;-73
2022/01/30 05:58:24;;;;;;;22.42;7.88;;;;;;;4.56;76.99;100858.13;5058032;28;20047;-73
2022/01/30 06:00:49;;;;;;;28.63;7.50;;;;;;;4.58;76.72;100866.78;5068003;28;20039;-73
2022/01/30 06:03:15;;;;;;;24.52;7.68;;;;;;;4.61;77.04;100874.63;5070956;28;20127;-73
2022/01/30 06:05:41;;;;;;;22.25;8.18;;;;;;;4.63;77.17;100876.34;5062449;28;20370;-73
2022/01/30 06:08:59;;;;;;;17.70;6.15;;;;;;;4.67;76.78;100874.56;5071857;28;20067;-73
2022/01/30 06:10:55;;;;;;;24.17;7.70;;;;;;;4.69;76.14;100875.41;5060791;28;20033;-73
2022/01/30 06:13:20;;;;;;;22.25;5.78;;;;;;;4.72;76.54;100878.88;5071434;28;20154;-73
2022/01/30 06:15:45;;;;;;;21.40;6.40;;;;;;;4.71;76.23;100873.66;5070766;28;20084;-73
2022/01/30 06:18:11;;;;;;;24.15;5.40;;;;;;;4.71;76.12;100873.66;5071144;28;20029;-72
2022/01/30 06:20:36;;;;;;;23.55;8.30;;;;;;;4.71;75.74;100866.69;5071519;28;20507;-72
2022/01/30 06:23:01;;;;;;;29.27;6.38;;;;;;;4.71;75.57;100869.31;5070966;28;20033;-73
2022/01/30 06:25:27;;;;;;;24.70;6.65;;;;;;;4.72;75.56;100871.03;5070274;28;20033;-72
2022/01/30 06:27:52;;;;;;;22.17;6.15;;;;;;;4.74;75.63;100878.88;5070384;28;20024;-72
2022/01/30 06:30:21;;;;;;;18.05;5.70;;;;;;;4.74;75.62;100860.56;5070974;28;20025;-72
2022/01/30 06:32:47;;;;;;;30.70;5.57;;;;;;;4.66;75.03;100862.41;5070775;28;20028;-72
2022/01/30 06:35:12;;;;;;;27.20;7.47;;;;;;;4.66;75.97;100860.63;5070536;28;20039;-72
2022/01/30 06:37:38;;;;;;;26.23;6.25;;;;;;;4.68;75.60;100865.88;5071828;28;20028;-72
2022/01/30 06:40:04;;;;;;;28.30;6.82;;;;;;;4.70;75.36;100874.53;5069123;28;20379;-72
2022/01/30 06:42:30;;;;;;;27.65;7.47;;;;;;;4.70;75.44;100883.25;5070817;28;20041;-73
2022/01/30 06:44:55;;;;;;;23.35;7.38;;;;;;;4.72;75.32;100886.69;5070247;28;20044;-73
2022/01/30 06:47:21;;;;;;;23.55;9.05;;;;;;;4.71;75.40;100884.13;5070560;28;20111;-73
2022/01/30 06:49:46;;;;;;;27.67;6.07;;;;;;;4.73;74.88;100883.22;5070899;28;20036;-74
2022/01/30 06:52:11;;;;;;;24.08;5.68;;;;;;;4.73;75.24;100878.00;5071198;28;20041;-73
2022/01/30 06:54:37;;;;;;;20.35;5.53;;;;;;;4.74;74.93;100884.09;5068957;28;20098;-73
2022/01/30 06:57:04;;;;;;;21.92;7.15;;;;;;;4.69;75.61;100891.09;5070468;28;20534;-73
2022/01/30 06:59:29;;;;;;;23.15;6.38;;;;;;;4.63;74.98;100891.16;5070192;28;20041;-72
2022/01/30 07:01:54;;;;;;;41.95;8.80;;;;;;;4.58;75.85;100892.91;5070882;28;20051;-72
2022/01/30 07:04:20;;;;;;;18.80;5.82;;;;;;;4.46;76.21;100905.19;5069850;28;20567;-73
2022/01/30 07:06:45;;;;;;;19.42;5.95;;;;;;;4.43;76.42;100907.81;5070148;28;20033;-71
2022/01/30 07:09:11;;;;;;;22.95;6.60;;;;;;;4.38;76.35;100904.38;5070606;28;20039;-72
2022/01/30 07:11:36;;;;;;;25.88;7.20;;;;;;;4.33;76.51;100906.09;5070869;28;20032;-71
2022/01/30 07:14:02;;;;;;;20.23;6.45;;;;;;;4.28;76.27;100905.25;5069891;28;20039;-71
2022/01/30 07:16:27;;;;;;;20.60;8.55;;;;;;;4.27;76.54;100913.97;5072230;28;20508;-72
2022/01/30 07:18:53;;;;;;;19.88;6.03;;;;;;;4.21;76.56;100924.44;5072456;28;20031;-71
2022/01/30 07:21:18;;;;;;;18.58;6.75;;;;;;;4.19;76.77;100918.38;5068720;28;20059;-71
2022/01/30 07:23:43;;;;;;;29.20;7.68;;;;;;;4.16;76.96;100928.81;5070393;28;20477;-70
2022/01/30 07:26:09;;;;;;;24.30;7.60;;;;;;;4.13;77.08;100915.78;5069860;28;20037;-71
2022/01/30 07:28:34;;;;;;;16.42;5.70;;;;;;;4.06;77.30;100923.66;5070374;28;20112;-71
2022/01/30 07:31:00;;;;;;;19.15;7.00;;;;;;;4.06;77.11;100928.00;5070997;28;20874;-70
2022/01/30 07:33:25;;;;;;;31.23;9.95;;;;;;;4.03;77.26;100925.41;5070075;28;20045;-71
2022/01/30 07:35:53;;;;;;;19.42;6.75;;;;;;;4.01;77.00;100930.66;5069427;28;20458;-71
2022/01/30 07:38:20;;;;;;;30.88;6.60;;;;;;;3.99;77.01;100926.31;5069871;28;20036;-71
2022/01/30 07:40:47;;;;;;;23.17;7.88;;;;;;;3.99;76.82;100937.59;5069709;28;20024;-71
2022/01/30 07:43:12;;;;;;;28.17;10.07;;;;;;;3.96;76.67;100937.59;5069794;28;20107;-71
2022/01/30 07:45:37;;;;;;;28.02;8.27;;;;;;;3.96;76.43;100940.19;5069496;28;20107;-71
2022/01/30 07:48:03;;;;;;;27.13;8.23;;;;;;;3.95;76.40;100951.53;5069392;28;20032;-72
2022/01/30 07:50:29;;;;;;;18.40;6.78;;;;;;;3.98;76.60;100953.25;5069011;28;20115;-70
2022/01/30 07:52:55;;;;;;;27.77;7.18;;;;;;;3.99;76.12;100958.47;5068299;28;20741;-71
2022/01/30 07:55:20;;;;;;;22.90;7.20;;;;;;;4.02;76.59;100957.59;5068337;28;20120;-71
2022/01/30 07:57:46;;;;;;;16.73;5.00;;;;;;;4.03;76.44;100954.97;5069293;28;20119;-71
2022/01/30 08:00:12;;;;;;;20.35;7.35;;;;;;;4.04;76.23;100955.84;5069442;28;20038;-72
2022/01/30 08:02:37;;;;;;;21.55;6.95;;;;;;;4.06;76.77;100959.31;5070633;28;20033;-72
2022/01/30 08:05:03;;;;;;;19.63;5.97;;;;;;;4.07;76.61;100974.97;5068234;28;20926;-70
2022/01/30 08:07:29;;;;;;;21.63;6.55;;;;;;;4.07;76.44;100966.28;5069269;28;20384;-71
2022/01/30 08:09:55;;;;;;;22.92;7.15;;;;;;;4.07;76.34;100972.34;5069451;28;20045;-71
2022/01/30 08:12:20;;;;;;;21.20;7.15;;;;;;;4.08;76.62;100974.06;5072042;28;20104;-72
2022/01/30 08:14:46;;;;;;;30.25;7.40;;;;;;;4.09;76.34;100981.06;5073975;28;20039;-72
2022/01/30 08:17:18;;;;;;;33.88;6.50;;;;;;;4.08;76.15;100978.44;5071994;28;20552;-73
2022/01/30 08:19:44;;;;;;;19.23;6.32;;;;;;;4.08;76.22;100973.22;5056845;28;20058;-72
2022/01/30 08:22:10;;;;;;;19.17;6.03;;;;;;;4.12;75.95;100966.25;5069964;28;20267;-72
2022/01/30 08:24:35;;;;;;;23.35;6.07;;;;;;;4.11;75.86;100968.00;5065876;28;20493;-71
2022/01/30 08:27:00;;;;;;;22.02;6.47;;;;;;;4.19;76.01;100962.75;5068430;28;20033;-72
2022/01/30 08:29:26;;;;;;;23.40;6.35;;;;;;;4.29;75.70;100962.69;5067451;28;20505;-71
2022/01/30 08:31:51;;;;;;;19.23;6.45;;;;;;;4.45;74.84;100970.44;5068810;28;20024;-71
2022/01/30 08:34:16;;;;;;;18.08;5.40;;;;;;;4.58;74.27;100982.59;5068487;28;20036;-71
2022/01/30 08:36:42;;;;;;;16.98;5.68;;;;;;;4.70;74.05;100976.41;5066866;28;20032;-72
2022/01/30 08:39:07;;;;;;;19.92;6.07;;;;;;;4.77;74.33;100985.94;5069155;28;20404;-72
2022/01/30 08:41:32;;;;;;;25.08;7.60;;;;;;;4.82;74.11;100978.06;5068369;28;20029;-72
2022/01/30 08:43:58;;;;;;;25.38;6.80;;;;;;;4.85;73.63;100984.16;5068098;28;20032;-72
2022/01/30 08:46:23;;;;;;;18.80;5.85;;;;;;;4.89;73.46;100979.78;5066146;28;20040;-72
2022/01/30 08:48:48;;;;;;;20.42;6.80;;;;;;;4.93;72.99;100984.09;5068165;28;20489;-73
2022/01/30 08:51:14;;;;;;;23.08;6.90;;;;;;;4.95;71.98;100988.44;5067727;28;20036;-71
2022/01/30 08:53:39;;;;;;;18.92;6.82;;;;;;;5.01;72.12;100984.06;5068544;28;20028;-71
2022/01/30 08:56:05;;;;;;;17.98;5.53;;;;;;;5.10;71.96;100987.47;5067650;28;20036;-71
2022/01/30 08:58:32;;;;;;;36.45;7.38;;;;;;;5.16;71.23;100981.31;5068294;28;20036;-71
2022/01/30 09:00:58;;;;;;;17.88;6.57;;;;;;;5.27;71.79;100989.97;5063919;28;20020;-72
2022/01/30 09:03:23;;;;;;;21.92;6.18;;;;;;;5.44;70.77;100994.16;5067522;28;20032;-69
2022/01/30 09:05:49;;;;;;;15.10;5.47;;;;;;;5.57;70.28;100990.56;5066776;28;20086;-73
2022/01/30 09:08:15;;;;;;;19.83;7.80;;;;;;;5.57;69.69;100990.56;5070146;28;20544;-72
2022/01/30 09:10:41;;;;;;;26.17;6.03;;;;;;;5.46;69.33;100995.00;5068626;28;20093;-72
2022/01/30 09:13:07;;;;;;;17.55;5.68;;;;;;;5.59;69.46;100999.28;5068798;28;20033;-71
2022/01/30 09:15:41;;;;;;;19.25;6.82;;;;;;;5.74;69.49;100995.66;5067182;28;20144;-71
2022/01/30 09:18:09;;;;;;;27.08;7.18;;;;;;;5.73;69.32;100997.38;5065491;28;20645;-72
2022/01/30 09:20:40;;;;;;;17.10;5.35;;;;;;;6.14;68.42;100983.00;5066631;28;20504;-71
2022/01/30 09:23:07;;;;;;;34.00;7.07;;;;;;;7.17;65.52;100994.72;5067139;28;20024;-71
2022/01/30 09:25:32;;;;;;;21.05;7.32;;;;;;;8.14;61.78;100991.22;5065905;28;20040;-71
2022/01/30 09:27:58;;;;;;;14.68;6.78;;;;;;;8.92;60.10;100986.09;5066014;28;20036;-71
2022/01/30 09:30:23;;;;;;;18.42;6.43;;;;;;;9.52;57.32;100997.78;5066834;28;20033;-71
2022/01/30 09:32:49;;;;;;;20.58;5.70;;;;;;;10.15;55.96;101001.38;5066831;28;20123;-69
2022/01/30 09:35:14;;;;;;;18.25;7.15;;;;;;;10.61;53.76;100997.47;5064841;28;20749;-69
2022/01/30 09:37:40;;;;;;;30.63;6.18;;;;;;;10.85;52.67;100997.63;5067785;28;20033;-70
2022/01/30 09:40:07;;;;;;;18.30;5.63;;;;;;;11.17;52.18;100996.59;5065361;28;20120;-69
2022/01/30 09:42:33;;;;;;;30.55;6.28;;;;;;;11.49;51.24;100998.16;5067477;28;20033;-69
2022/01/30 09:45:02;;;;;;;17.67;4.97;;;;;;;11.72;49.67;101007.13;5064463;28;20035;-69
2022/01/30 09:47:28;;;;;;;21.48;6.72;;;;;;;10.59;51.85;101019.53;5067718;28;20083;-69
2022/01/30 09:49:54;;;;;;;27.17;7.80;;;;;;;9.69;54.28;101015.78;5067291;28;20059;-69
2022/01/30 09:52:21;;;;;;;20.38;6.43;;;;;;;10.20;53.31;101019.72;5067162;28;20032;-69
2022/01/30 09:54:48;;;;;;;15.80;6.32;;;;;;;10.77;51.88;101018.94;5066554;28;20036;-68
2022/01/30 09:57:15;;;;;;;21.15;7.18;;;;;;;11.26;50.60;101021.84;5066726;28;20050;-68
2022/01/30 09:59:40;;;;;;;27.08;7.03;;;;;;;11.66;49.51;101016.09;5052989;28;20029;-68
2022/01/30 10:02:07;;;;;;;15.20;6.30;;;;;;;11.92;48.35;101009.09;5058826;28;20215;-68
2022/01/30 10:04:34;;;;;;;24.48;7.72;;;;;;;12.09;47.40;101012.00;5063405;28;20033;-69
2022/01/30 10:07:11;;;;;;;21.08;6.28;;;;;;;12.14;47.63;101010.06;5053445;28;20079;-70
2022/01/30 10:09:42;;;;;;;26.10;5.93;;;;;;;12.29;47.08;101013.06;5056865;28;20048;-70
2022/01/30 10:12:18;;;;;;;19.75;5.60;;;;;;;12.66;46.72;101015.19;5063629;28;20110;-70
2022/01/30 10:14:51;;;;;;;15.60;7.78;;;;;;;12.73;46.63;101014.03;5065140;28;20092;-69
2022/01/30 10:17:24;;;;;;;24.65;7.00;;;;;;;12.91;45.56;101012.47;5062138;28;20051;-68
2022/01/30 10:20:12;;;;;;;21.75;7.28;;;;;;;12.88;44.86;101010.78;5061586;28;20381;-70
2022/01/30 10:22:49;;;;;;;21.77;6.70;;;;;;;12.80;44.34;101009.38;5062722;28;20039;-71
2022/01/30 10:25:20;;;;;;;25.48;7.47;;;;;;;12.70;44.67;101013.28;5059695;28;20079;-71
2022/01/30 10:27:46;;;;;;;21.55;7.70;;;;;;;12.82;44.87;101020.75;5060530;28;20064;-72
2022/01/30 10:30:11;;;;;;;24.40;6.35;;;;;;;12.74;44.58;101012.25;5060844;28;20070;-72
2022/01/30 10:32:36;;;;;;;16.08;5.40;;;;;;;12.92;44.67;101019.50;5059962;28;20064;-71
2022/01/30 10:35:08;;;;;;;17.45;5.80;;;;;;;12.87;44.81;101021.44;5058130;28;20087;-71
2022/01/30 10:37:38;;;;;;;17.27;6.78;;;;;;;12.53;44.73;101017.44;5060569;28;20056;-72
2022/01/30 10:40:10;;;;;;;16.33;6.80;;;;;;;11.91;46.05;101024.09;5054673;28;20040;-72
2022/01/30 10:42:40;;;;;;;26.20;6.47;;;;;;;11.49;47.55;101026.38;5060044;28;20107;-71
2022/01/30 10:45:33;;;;;;;24.55;7.82;;;;;;;11.11;48.17;101026.69;5058065;28;20056;-71
2022/01/30 10:48:12;;;;;;;15.95;6.28;;;;;;;10.50;49.74;101023.28;5061280;28;20043;-71
2022/01/30 10:50:40;;;;;;;19.27;7.03;;;;;;;10.18;50.46;101029.44;5062269;28;20041;-71
2022/01/30 10:53:05;;;;;;;16.73;6.97;;;;;;;10.04;51.04;101035.94;5063894;28;20402;-72
2022/01/30 10:55:41;;;;;;;20.58;6.75;;;;;;;10.03;52.10;101026.31;5062836;28;20198;-73
2022/01/30 10:58:07;;;;;;;;;;;;;;;9.72;52.21;101038.53;5063861;28;20090;-73
2022/01/30 11:00:40;;;;;;;18.10;5.75;;;;;;;9.52;52.88;101026.75;5063464;28;25325;-72
2022/01/30 11:03:07;;;;;;;24.10;6.60;;;;;;;9.35;53.37;101021.91;5064679;28;20067;-72
2022/01/30 11:05:51;;;;;;;18.13;6.82;;;;;;;9.21;53.25;101014.34;5063462;28;20041;-73
2022/01/30 11:08:24;;;;;;;26.40;7.60;;;;;;;9.04;54.06;101016.50;5062073;28;20041;-72
2022/01/30 11:11:09;;;;;;;22.98;5.90;;;;;;;8.75;53.45;101012.75;5062835;28;20043;-73
2022/01/30 11:13:47;;;;;;;24.23;7.43;;;;;;;8.58;54.54;101007.88;5062210;28;20067;-73
2022/01/30 11:18:59;;;;;;;31.10;8.32;;;;;;;8.38;55.51;101002.13;5063686;28;20048;-73
2022/01/30 11:21:26;;;;;;;21.63;7.63;;;;;;;8.17;55.43;100996.44;5061805;28;20037;-73
2022/01/30 11:23:52;;;;;;;36.40;7.50;;;;;;;8.11;55.60;100998.31;5062210;28;20082;-73
2022/01/30 11:26:18;;;;;;;20.73;6.63;;;;;;;8.14;56.43;100996.47;5062648;28;20429;-71
2022/01/30 11:28:45;;;;;;;28.23;6.63;;;;;;;8.18;56.08;100986.78;5063780;28;20052;-70
2022/01/30 11:31:14;;;;;;;28.92;11.15;;;;;;;8.28;56.44;100990.09;5064241;28;20090;-71
2022/01/30 11:33:40;;;;;;;23.52;5.53;;;;;;;8.41;55.72;100981.06;5063835;28;20048;-71
2022/01/30 11:36:06;;;;;;;28.50;7.38;;;;;;;8.47;55.87;100982.72;5062789;28;20036;-72
2022/01/30 11:38:32;;;;;;;29.30;8.05;;;;;;;8.37;55.84;100964.50;5062978;28;20059;-72
2022/01/30 11:41:11;;;;;;;28.65;8.13;;;;;;;8.25;55.86;100962.13;5063005;28;20615;-72
2022/01/30 11:43:37;;;;;;;37.00;7.90;;;;;;;8.25;57.19;100967.38;5063536;28;20110;-70
2022/01/30 11:46:16;;;;;;;23.52;5.95;;;;;;;8.23;56.35;100958.66;5062257;28;20044;-70
2022/01/30 11:48:42;;;;;;;22.52;6.18;;;;;;;8.21;56.66;100946.44;5063137;28;20032;-71
2022/01/30 11:51:08;;;;;;;16.05;6.05;;;;;;;8.35;56.96;100953.16;5060867;28;20037;-71
2022/01/30 11:53:36;;;;;;;22.52;6.13;;;;;;;8.52;56.19;100950.19;5076775;28;20029;-71
2022/01/30 11:56:03;;;;;;;25.00;6.50;;;;;;;8.53;55.45;100946.66;5071706;28;20045;-71
2022/01/30 11:58:35;;;;;;;24.17;7.57;;;;;;;8.53;55.97;100949.28;5064270;28;20040;-72
2022/01/30 12:01:00;;;;;;;15.82;6.82;;;;;;;8.61;55.32;100938.59;5063129;28;20170;-71
2022/01/30 12:03:35;;;;;;;23.23;7.70;;;;;;;8.49;55.04;100938.84;5063436;28;20127;-72
2022/01/30 12:06:19;;;;;;;22.05;6.25;;;;;;;8.30;54.99;100930.50;5059381;28;20049;-73
2022/01/30 12:08:49;;;;;;;19.65;5.95;;;;;;;8.37;55.95;100916.34;5062749;28;20068;-72
2022/01/30 12:11:36;;;;;;;21.55;6.32;;;;;;;8.52;54.16;100913.41;5060967;28;20032;-71
2022/01/30 12:14:10;;;;;;;19.15;6.90;;;;;;;8.41;54.60;100899.63;5060434;28;20032;-72
2022/01/30 12:16:46;;;;;;;21.15;5.90;;;;;;;8.28;53.93;100909.50;5062265;28;20063;-70
2022/01/30 12:19:13;;;;;;;28.80;7.50;;;;;;;8.25;55.08;100896.44;5052689;28;20040;-70
2022/01/30 12:21:39;;;;;;;27.88;6.15;;;;;;;8.37;54.09;100890.91;5058386;28;20040;-71
2022/01/30 12:24:25;;;;;;;17.50;6.50;;;;;;;8.54;53.97;100900.19;5062672;28;20051;-71
2022/01/30 12:26:52;;;;;;;;;;;;;;;8.48;53.71;100895.09;5059668;28;20089;-71